Time;durP1;ratioP1;P1;durP2;ratioP2;P2;SDS_P1;SDS_P2;PMS_P1;PMS_P2;Temp;Humidity;BMP_temperature;BMP_pressure;BME280_temperature;BME280_humidity;BME280_pressure;Samples;Min_cycle;Max_cycle;Signal;HPM_P1;HPM_P2
2022/03/05 00:00:38;;;;;;;15.60;7.65;;;23.50;98.20;;;;;;5033218;28;20034;-62
2022/03/05 00:03:06;;;;;;;15.35;7.03;;;23.60;98.20;;;;;;5045005;28;20037;-62
2022/03/05 00:05:33;;;;;;;17.70;7.78;;;23.60;98.20;;;;;;5035223;28;20049;-63
2022/03/05 00:08:00;;;;;;;17.23;7.93;;;23.60;98.00;;;;;;5020661;28;20033;-62
2022/03/05 00:10:27;;;;;;;18.77;7.50;;;23.70;98.00;;;;;;5052273;28;20044;-62
2022/03/05 00:12:55;;;;;;;17.70;7.65;;;23.70;97.90;;;;;;5050253;28;20072;-62
2022/03/05 00:15:24;;;;;;;17.38;7.68;;;23.80;97.90;;;;;;5051828;28;20033;-62
2022/03/05 00:17:51;;;;;;;21.57;8.37;;;23.80;97.90;;;;;;5051080;28;20083;-62
2022/03/05 00:20:19;;;;;;;15.02;8.02;;;23.80;97.80;;;;;;5040078;28;20051;-62
2022/03/05 00:22:46;;;;;;;17.95;8.80;;;23.80;97.60;;;;;;5051948;28;20075;-62
2022/03/05 00:25:14;;;;;;;20.67;9.27;;;23.80;97.60;;;;;;5034030;28;20045;-62
2022/03/05 00:27:43;;;;;;;25.90;11.35;;;23.80;97.50;;;;;;5051855;28;20025;-62
2022/03/05 00:30:11;;;;;;;22.85;10.95;;;23.80;97.30;;;;;;5051687;28;20029;-62
2022/03/05 00:32:38;;;;;;;20.65;11.27;;;23.70;96.90;;;;;;5051839;28;20435;-62
2022/03/05 00:35:07;;;;;;;23.25;11.40;;;23.70;96.80;;;;;;5037007;28;20041;-62
2022/03/05 00:37:34;;;;;;;23.30;11.85;;;23.70;96.80;;;;;;5045143;28;20052;-62
2022/03/05 00:40:01;;;;;;;24.55;12.70;;;23.70;96.70;;;;;;5051262;28;20516;-62
2022/03/05 00:42:29;;;;;;;23.73;12.48;;;23.70;96.70;;;;;;5051437;28;20426;-62
2022/03/05 00:44:56;;;;;;;18.15;11.07;;;23.70;96.70;;;;;;5052082;28;20056;-62
2022/03/05 00:47:23;;;;;;;19.02;11.38;;;23.80;96.50;;;;;;5051490;28;20033;-62
2022/03/05 00:49:50;;;;;;;19.10;11.00;;;23.80;96.40;;;;;;5050494;28;20045;-62
2022/03/05 00:52:18;;;;;;;17.23;10.50;;;23.80;96.30;;;;;;5032716;28;20029;-63
2022/03/05 00:54:45;;;;;;;21.23;11.38;;;23.90;96.20;;;;;;5049059;28;20138;-63
2022/03/05 00:57:12;;;;;;;18.52;10.15;;;23.90;95.80;;;;;;5051119;28;20035;-62
2022/03/05 00:59:40;;;;;;;21.55;11.88;;;23.90;95.60;;;;;;5051010;28;20044;-61
2022/03/05 01:02:07;;;;;;;20.10;11.52;;;23.90;95.90;;;;;;5050959;28;20442;-62
2022/03/05 01:04:34;;;;;;;18.10;8.88;;;23.90;95.90;;;;;;5033171;28;20053;-62
2022/03/05 01:07:04;;;;;;;18.70;7.25;;;23.90;95.80;;;;;;5051115;28;20074;-62
2022/03/05 01:09:32;;;;;;;21.50;8.07;;;23.90;95.80;;;;;;5050250;28;20125;-62
2022/03/05 01:11:59;;;;;;;21.02;7.78;;;23.80;95.90;;;;;;5050564;28;20529;-63
2022/03/05 01:14:26;;;;;;;21.85;9.10;;;23.90;95.90;;;;;;5032962;28;20116;-63
2022/03/05 01:16:53;;;;;;;30.67;8.70;;;23.90;95.80;;;;;;5032678;28;20103;-62
2022/03/05 01:19:21;;;;;;;21.48;7.70;;;23.90;96.20;;;;;;5051331;28;20552;-62
2022/03/05 01:21:48;;;;;;;19.98;8.30;;;23.90;96.00;;;;;;5032661;28;20037;-61
2022/03/05 01:24:15;;;;;;;19.73;7.95;;;23.90;96.00;;;;;;5036898;28;20537;-62
2022/03/05 01:26:42;;;;;;;20.08;8.77;;;24.00;95.90;;;;;;5030304;28;20493;-62
2022/03/05 01:29:10;;;;;;;20.63;9.65;;;24.00;95.80;;;;;;5030846;28;20059;-62
2022/03/05 01:31:37;;;;;;;20.00;9.38;;;24.00;95.90;;;;;;5042556;28;20033;-62
2022/03/05 01:34:04;;;;;;;24.10;9.82;;;24.00;95.50;;;;;;5033212;28;20033;-62
2022/03/05 01:36:31;;;;;;;20.95;9.88;;;24.00;95.30;;;;;;5050555;28;20045;-62
2022/03/05 01:38:58;;;;;;;28.63;9.55;;;24.10;94.80;;;;;;5049374;28;20174;-62
2022/03/05 01:41:26;;;;;;;21.15;7.75;;;24.10;94.90;;;;;;5049327;28;20091;-60
2022/03/05 01:43:53;;;;;;;21.60;7.50;;;24.20;95.00;;;;;;5050284;28;20391;-61
2022/03/05 01:46:34;;;;;;;21.63;8.60;;;24.20;94.40;;;;;;5050746;28;20041;-67
2022/03/05 01:49:06;;;;;;;17.50;7.32;;;24.20;94.30;;;;;;5012990;28;20046;-64
2022/03/05 01:51:33;;;;;;;18.42;7.78;;;24.30;94.20;;;;;;5044308;28;20124;-64
2022/03/05 01:54:00;;;;;;;20.13;8.05;;;24.30;94.20;;;;;;5045670;28;20401;-65
2022/03/05 01:56:28;;;;;;;22.67;8.27;;;24.30;94.00;;;;;;5050041;28;20029;-63
2022/03/05 01:58:55;;;;;;;27.45;8.68;;;24.30;94.30;;;;;;5050615;28;20036;-63
2022/03/05 02:01:23;;;;;;;20.20;6.88;;;24.30;94.20;;;;;;5050122;28;20036;-63
2022/03/05 02:03:51;;;;;;;20.08;7.85;;;24.40;94.40;;;;;;5032820;28;20033;-64
2022/03/05 02:06:19;;;;;;;17.52;6.70;;;24.40;94.40;;;;;;5032832;28;20047;-64
2022/03/05 02:08:46;;;;;;;13.75;6.35;;;24.30;93.90;;;;;;5021493;28;20037;-64
2022/03/05 02:11:13;;;;;;;18.95;6.82;;;24.30;94.10;;;;;;5042416;28;20387;-64
2022/03/05 02:13:41;;;;;;;19.63;6.53;;;24.30;93.80;;;;;;5050304;28;20422;-64
2022/03/05 02:16:09;;;;;;;23.67;6.20;;;24.30;93.90;;;;;;5050168;28;20561;-63
2022/03/05 02:18:36;;;;;;;19.40;5.25;;;24.30;93.40;;;;;;5032643;28;20399;-62
2022/03/05 02:21:04;;;;;;;20.65;5.82;;;24.20;93.10;;;;;;5049998;28;20069;-62
2022/03/05 02:23:31;;;;;;;25.63;6.50;;;24.20;93.50;;;;;;5030987;28;20467;-62
2022/03/05 02:26:05;;;;;;;19.35;6.10;;;24.20;93.70;;;;;;5049505;28;20039;-62
2022/03/05 02:28:33;;;;;;;13.93;5.93;;;24.20;93.70;;;;;;5049876;28;20033;-62
2022/03/05 02:31:00;;;;;;;17.33;6.03;;;24.20;93.90;;;;;;5031518;28;20120;-63
2022/03/05 02:33:28;;;;;;;20.73;6.05;;;24.20;93.60;;;;;;5050114;28;20029;-63
2022/03/05 02:35:55;;;;;;;14.38;5.72;;;24.20;93.80;;;;;;5049474;28;20063;-65
2022/03/05 02:38:23;;;;;;;18.00;6.18;;;24.20;93.50;;;;;;5048919;28;20451;-62
2022/03/05 02:40:51;;;;;;;20.95;6.75;;;24.30;93.60;;;;;;5050446;28;20047;-62
2022/03/05 02:43:19;;;;;;;16.10;6.15;;;24.30;93.50;;;;;;5015708;28;20501;-62
2022/03/05 02:45:46;;;;;;;16.60;6.40;;;24.30;93.60;;;;;;5051370;28;20048;-62
2022/03/05 02:48:14;;;;;;;14.23;6.18;;;24.40;93.30;;;;;;5052411;28;20383;-63
2022/03/05 02:50:42;;;;;;;15.55;6.30;;;24.40;93.20;;;;;;5053518;28;20461;-65
2022/03/05 02:53:09;;;;;;;16.73;6.43;;;24.40;92.50;;;;;;5035507;28;20037;-62
2022/03/05 02:55:36;;;;;;;14.85;6.30;;;24.50;92.10;;;;;;5053093;28;20041;-62
2022/03/05 02:58:04;;;;;;;21.95;6.90;;;24.40;92.20;;;;;;5053342;28;20021;-62
2022/03/05 03:00:31;;;;;;;15.23;6.10;;;24.40;91.90;;;;;;5053187;28;20395;-62
2022/03/05 03:02:59;;;;;;;12.75;6.07;;;24.40;92.10;;;;;;5052481;28;20033;-62
2022/03/05 03:05:26;;;;;;;19.58;6.03;;;24.40;92.60;;;;;;5053373;28;20052;-62
2022/03/05 03:07:54;;;;;;;16.58;5.38;;;24.50;92.20;;;;;;5053233;28;20033;-62
2022/03/05 03:10:21;;;;;;;17.02;5.25;;;24.50;92.00;;;;;;5035251;28;20565;-63
2022/03/05 03:12:48;;;;;;;14.93;5.50;;;24.50;92.20;;;;;;5052856;28;20113;-63
2022/03/05 03:15:16;;;;;;;16.20;5.13;;;24.50;91.40;;;;;;5052945;28;20047;-62
2022/03/05 03:17:44;;;;;;;11.40;4.40;;;24.50;92.20;;;;;;5053239;28;20056;-62
2022/03/05 03:20:12;;;;;;;13.73;4.47;;;24.50;91.80;;;;;;5053327;28;20024;-62
2022/03/05 03:22:40;;;;;;;11.52;3.80;;;24.60;92.30;;;;;;5052642;28;20112;-62
2022/03/05 03:25:07;;;;;;;13.57;3.90;;;24.60;91.70;;;;;;5052482;28;20037;-62
2022/03/05 03:27:35;;;;;;;15.75;3.85;;;24.50;91.70;;;;;;5052232;28;20029;-62
2022/03/05 03:30:03;;;;;;;13.63;3.80;;;24.60;91.60;;;;;;5052744;28;20060;-64
2022/03/05 03:32:30;;;;;;;9.90;3.05;;;24.50;90.90;;;;;;5053502;28;20025;-62
2022/03/05 03:34:57;;;;;;;12.75;4.25;;;24.50;91.20;;;;;;5052678;28;20059;-62
2022/03/05 03:37:28;;;;;;;14.68;4.22;;;24.50;90.90;;;;;;5052725;28;20037;-62
2022/03/05 03:39:59;;;;;;;9.95;4.03;;;24.50;90.90;;;;;;5035794;28;20559;-62
2022/03/05 03:42:26;;;;;;;11.05;4.00;;;24.50;91.30;;;;;;5051417;28;20037;-62
2022/03/05 03:44:54;;;;;;;16.70;3.85;;;24.50;91.20;;;;;;5034425;28;20049;-62
2022/03/05 03:47:21;;;;;;;12.55;4.20;;;24.50;91.10;;;;;;5052752;28;20099;-62
2022/03/05 03:49:48;;;;;;;10.05;4.22;;;24.50;90.50;;;;;;5050114;28;20475;-62
2022/03/05 03:52:16;;;;;;;8.55;3.42;;;24.50;90.50;;;;;;5051531;28;20033;-64
2022/03/05 03:54:44;;;;;;;9.68;2.85;;;24.50;90.70;;;;;;5034199;28;20025;-62
2022/03/05 03:57:11;;;;;;;9.60;3.25;;;24.60;91.10;;;;;;5052454;28;20086;-62
2022/03/05 03:59:38;;;;;;;11.57;3.30;;;24.60;90.80;;;;;;5035070;28;20032;-63
2022/03/05 04:02:05;;;;;;;14.60;3.55;;;24.60;90.80;;;;;;5052328;28;20064;-62
2022/03/05 04:04:33;;;;;;;12.60;3.50;;;24.60;91.50;;;;;;5052485;28;20083;-63
2022/03/05 04:09:45;;;;;;;16.75;3.65;;;24.60;91.20;;;;;;5032280;28;20047;-63
2022/03/05 04:12:12;;;;;;;14.07;3.65;;;24.50;91.10;;;;;;5016808;28;20042;-62
2022/03/05 04:14:40;;;;;;;8.70;2.80;;;24.50;90.80;;;;;;5052241;28;20036;-62
2022/03/05 04:17:07;;;;;;;16.10;3.05;;;24.60;90.80;;;;;;5051993;28;20103;-62
2022/03/05 04:19:34;;;;;;;10.90;2.92;;;24.60;90.80;;;;;;5052502;28;20082;-62
2022/03/05 04:22:02;;;;;;;11.05;2.72;;;24.60;91.50;;;;;;5051931;28;20475;-62
2022/03/05 04:24:29;;;;;;;12.63;3.10;;;24.70;91.60;;;;;;5033330;28;20057;-65
2022/03/05 04:26:56;;;;;;;10.32;3.08;;;24.60;91.10;;;;;;5034146;28;20040;-62
2022/03/05 04:29:24;;;;;;;9.32;2.35;;;24.70;91.40;;;;;;5051535;28;20041;-65
2022/03/05 04:31:51;;;;;;;8.57;2.67;;;24.70;91.40;;;;;;5052417;28;20036;-62
2022/03/05 04:34:18;;;;;;;11.98;3.83;;;24.70;90.60;;;;;;5031876;28;20044;-63
2022/03/05 04:36:46;;;;;;;7.45;2.22;;;24.80;90.50;;;;;;5051556;28;20047;-65
2022/03/05 04:39:13;;;;;;;8.90;2.10;;;24.80;90.10;;;;;;5033670;28;20029;-65
2022/03/05 04:41:40;;;;;;;9.32;2.15;;;24.80;90.20;;;;;;5051810;28;20033;-63
2022/03/05 04:44:07;;;;;;;12.45;3.45;;;24.80;89.60;;;;;;5051506;28;20079;-63
2022/03/05 04:46:35;;;;;;;10.98;2.83;;;24.80;89.60;;;;;;5051515;28;20037;-62
2022/03/05 04:49:02;;;;;;;7.00;2.35;;;24.80;89.60;;;;;;5051961;28;20029;-64
2022/03/05 04:51:29;;;;;;;8.57;2.15;;;24.80;89.10;;;;;;5051108;28;20043;-65
2022/03/05 04:53:56;;;;;;;8.27;1.95;;;24.80;88.70;;;;;;5033073;28;20380;-64
2022/03/05 04:56:24;;;;;;;7.47;2.00;;;24.80;89.10;;;;;;5051427;28;20426;-64
2022/03/05 04:58:51;;;;;;;7.75;1.95;;;24.80;89.40;;;;;;5051782;28;20482;-64
2022/03/05 05:01:18;;;;;;;8.35;2.15;;;24.80;89.30;;;;;;5033899;28;20032;-62
2022/03/05 05:03:46;;;;;;;12.18;2.08;;;24.80;88.10;;;;;;5049148;28;20041;-64
2022/03/05 05:06:13;;;;;;;6.63;2.35;;;24.80;88.60;;;;;;5049657;28;20090;-61
2022/03/05 05:08:41;;;;;;;18.33;2.50;;;24.80;87.70;;;;;;5050016;28;20426;-61
2022/03/05 05:11:08;;;;;;;7.10;2.22;;;24.90;88.30;;;;;;5046774;28;20051;-64
2022/03/05 05:13:35;;;;;;;8.45;2.22;;;24.90;88.50;;;;;;5032257;28;20466;-64
2022/03/05 05:16:03;;;;;;;9.23;2.40;;;24.90;88.70;;;;;;5032357;28;20048;-62
2022/03/05 05:18:30;;;;;;;6.10;2.00;;;24.80;88.10;;;;;;5049440;28;20120;-67
2022/03/05 05:20:57;;;;;;;8.35;2.03;;;24.80;88.50;;;;;;5036446;28;20032;-61
2022/03/05 05:23:24;;;;;;;9.65;4.45;;;24.80;87.10;;;;;;5043219;28;20094;-61
2022/03/05 05:25:51;;;;;;;11.65;3.40;;;24.80;86.80;;;;;;5050237;28;20041;-62
2022/03/05 05:28:18;;;;;;;7.18;2.25;;;24.80;87.10;;;;;;5050760;28;20033;-64
2022/03/05 05:30:46;;;;;;;5.65;1.95;;;24.80;87.50;;;;;;5050873;28;20045;-62
2022/03/05 05:33:13;;;;;;;6.22;2.00;;;24.80;88.00;;;;;;5050282;28;20033;-64
2022/03/05 05:35:40;;;;;;;5.10;1.77;;;24.80;87.60;;;;;;5050838;28;20394;-64
2022/03/05 05:38:07;;;;;;;6.60;1.95;;;24.80;87.70;;;;;;5050663;28;20033;-63
2022/03/05 05:40:35;;;;;;;6.50;1.63;;;24.80;88.40;;;;;;5050815;28;20029;-64
2022/03/05 05:43:02;;;;;;;5.45;1.75;;;24.80;88.50;;;;;;5032252;28;20120;-62
2022/03/05 05:45:29;;;;;;;5.20;1.77;;;24.80;88.60;;;;;;5050316;28;20040;-63
2022/03/05 05:47:58;;;;;;;8.07;1.80;;;24.80;88.30;;;;;;5050452;28;20033;-64
2022/03/05 05:50:25;;;;;;;10.85;2.00;;;24.80;87.90;;;;;;5050529;28;20040;-62
2022/03/05 05:52:52;;;;;;;5.05;1.55;;;24.80;88.00;;;;;;5032512;28;20039;-62
2022/03/05 05:55:19;;;;;;;8.40;2.10;;;24.80;87.30;;;;;;5050651;28;20036;-64
2022/03/05 05:57:47;;;;;;;5.88;1.50;;;24.80;87.00;;;;;;5032151;28;20525;-64
2022/03/05 06:00:14;;;;;;;5.15;1.50;;;24.80;87.20;;;;;;5050218;28;20083;-64
2022/03/05 06:02:41;;;;;;;6.65;1.60;;;24.80;87.80;;;;;;5050535;28;20134;-63
2022/03/05 06:05:09;;;;;;;6.07;1.60;;;24.80;87.40;;;;;;5030744;28;20050;-64
2022/03/05 06:07:37;;;;;;;3.95;1.60;;;24.80;86.70;;;;;;5030269;28;20525;-64
2022/03/05 06:10:05;;;;;;;5.93;1.88;;;24.80;87.00;;;;;;5030441;28;20084;-63
2022/03/05 06:12:32;;;;;;;5.43;1.70;;;24.80;86.80;;;;;;5042321;28;20394;-64
2022/03/05 06:15:01;;;;;;;8.27;2.10;;;24.80;86.60;;;;;;5047720;28;20060;-64
2022/03/05 06:17:28;;;;;;;7.68;1.95;;;24.80;87.00;;;;;;5033494;28;20153;-62
2022/03/05 06:19:55;;;;;;;4.85;1.63;;;24.80;87.60;;;;;;5034924;28;20438;-62
2022/03/05 06:22:23;;;;;;;8.75;1.83;;;24.80;87.10;;;;;;5051722;28;20037;-62
2022/03/05 06:24:50;;;;;;;7.05;2.10;;;24.80;86.80;;;;;;5052569;28;20439;-62
2022/03/05 06:27:17;;;;;;;5.50;1.60;;;24.70;87.30;;;;;;5047319;28;20482;-61
2022/03/05 06:29:44;;;;;;;3.47;1.45;;;24.70;87.00;;;;;;5052098;28;20135;-61
2022/03/05 06:32:12;;;;;;;7.47;1.90;;;24.70;87.50;;;;;;5050500;28;20033;-62
2022/03/05 06:34:39;;;;;;;7.88;2.20;;;24.60;87.80;;;;;;5051088;28;20086;-61
2022/03/05 06:37:06;;;;;;;5.22;1.80;;;24.60;87.50;;;;;;5039484;28;20029;-62
2022/03/05 06:39:33;;;;;;;5.63;2.00;;;24.60;88.10;;;;;;5051443;28;20048;-62
2022/03/05 06:42:01;;;;;;;11.52;2.78;;;24.60;88.00;;;;;;5037717;28;20076;-62
2022/03/05 06:44:28;;;;;;;7.30;1.83;;;24.50;88.30;;;;;;5051928;28;20041;-61
2022/03/05 06:46:55;;;;;;;8.05;1.90;;;24.50;88.70;;;;;;5049669;28;20037;-62
2022/03/05 06:49:22;;;;;;;5.32;1.80;;;24.50;88.10;;;;;;5052615;28;20037;-62
2022/03/05 06:51:50;;;;;;;7.85;2.60;;;24.50;88.60;;;;;;5051880;28;20045;-62
2022/03/05 06:54:17;;;;;;;9.10;2.35;;;24.50;88.60;;;;;;5049528;28;20690;-63
2022/03/05 06:56:44;;;;;;;10.38;2.75;;;24.50;89.00;;;;;;5052061;28;20044;-64
2022/03/05 06:59:11;;;;;;;8.68;2.22;;;24.50;89.40;;;;;;5034349;28;20075;-62
2022/03/05 07:01:38;;;;;;;5.65;2.03;;;24.50;89.70;;;;;;5041787;28;20113;-63
2022/03/05 07:04:06;;;;;;;5.47;1.98;;;24.50;89.60;;;;;;5046898;28;20446;-63
2022/03/05 07:06:33;;;;;;;5.47;1.73;;;24.40;89.60;;;;;;5049193;28;20548;-63
2022/03/05 07:09:00;;;;;;;5.72;2.08;;;24.40;89.30;;;;;;5044607;28;20697;-63
2022/03/05 07:11:27;;;;;;;8.10;2.03;;;24.40;89.20;;;;;;5051597;28;20041;-64
2022/03/05 07:13:54;;;;;;;6.68;2.05;;;24.40;89.50;;;;;;5046750;28;20435;-63
2022/03/05 07:16:22;;;;;;;10.18;2.20;;;24.40;89.30;;;;;;5042819;28;20102;-63
2022/03/05 07:18:49;;;;;;;11.88;2.10;;;24.40;89.50;;;;;;5051404;28;20041;-62
2022/03/05 07:21:16;;;;;;;6.78;1.80;;;24.40;89.60;;;;;;5049534;28;20076;-64
2022/03/05 07:23:43;;;;;;;7.07;2.75;;;24.40;89.80;;;;;;5031954;28;20124;-63
2022/03/05 07:26:11;;;;;;;8.38;2.03;;;24.40;90.10;;;;;;5052631;28;20041;-65
2022/03/05 07:28:38;;;;;;;6.80;2.28;;;24.40;90.30;;;;;;5034206;28;20094;-66
2022/03/05 07:31:05;;;;;;;6.80;1.92;;;24.30;90.10;;;;;;5039835;28;20037;-65
2022/03/05 07:33:32;;;;;;;9.60;2.00;;;24.40;90.20;;;;;;5052221;28;20045;-66
2022/03/05 07:36:00;;;;;;;6.43;1.88;;;24.40;89.90;;;;;;5051053;28;20033;-67
2022/03/05 07:38:28;;;;;;;5.40;1.90;;;24.40;90.10;;;;;;5033238;28;20060;-65
2022/03/05 07:40:56;;;;;;;9.15;2.40;;;24.30;89.90;;;;;;5019635;28;20033;-65
2022/03/05 07:43:23;;;;;;;6.63;1.50;;;24.30;90.20;;;;;;5051502;28;20064;-66
2022/03/05 07:45:50;;;;;;;9.25;1.85;;;24.30;90.30;;;;;;5050399;28;20706;-64
2022/03/05 07:48:21;;;;;;;6.15;2.25;;;24.30;90.20;;;;;;5052499;28;20499;-64
2022/03/05 07:50:52;;;;;;;6.43;1.80;;;24.30;90.10;;;;;;5048908;28;20032;-63
2022/03/05 07:53:19;;;;;;;5.35;1.70;;;24.30;90.10;;;;;;5047449;28;20037;-64
2022/03/05 07:55:46;;;;;;;8.50;1.73;;;24.20;90.50;;;;;;5041894;28;20495;-64
2022/03/05 07:58:14;;;;;;;6.97;2.05;;;24.20;90.10;;;;;;5025385;28;20035;-64
2022/03/05 08:00:41;;;;;;;7.35;2.10;;;24.20;90.40;;;;;;5028717;28;20029;-64
2022/03/05 08:03:08;;;;;;;9.32;2.22;;;24.20;90.40;;;;;;5047740;28;20084;-63
2022/03/05 08:05:35;;;;;;;5.68;1.85;;;24.20;90.50;;;;;;5034375;28;20134;-63
2022/03/05 08:08:03;;;;;;;7.97;2.17;;;24.20;90.20;;;;;;5032231;28;20129;-64
2022/03/05 08:10:30;;;;;;;4.90;1.75;;;24.20;90.60;;;;;;5042260;28;20117;-63
2022/03/05 08:12:57;;;;;;;11.68;1.80;;;24.20;90.80;;;;;;5051628;28;20045;-63
2022/03/05 08:15:24;;;;;;;12.40;2.25;;;24.20;90.80;;;;;;5017498;28;20077;-63
2022/03/05 08:17:59;;;;;;;10.57;2.15;;;24.20;91.10;;;;;;5040812;28;20081;-63
2022/03/05 08:20:28;;;;;;;6.28;2.10;;;24.20;91.00;;;;;;5051954;28;20033;-64
2022/03/05 08:22:55;;;;;;;5.88;1.75;;;24.20;91.10;;;;;;5024066;28;20069;-63
2022/03/05 08:25:22;;;;;;;8.68;2.20;;;24.20;91.10;;;;;;5052070;28;20045;-62
2022/03/05 08:27:50;;;;;;;6.95;1.92;;;24.10;91.20;;;;;;5034517;28;20087;-62
2022/03/05 08:30:17;;;;;;;11.07;2.20;;;24.20;91.30;;;;;;5033887;28;20041;-62
2022/03/05 08:32:44;;;;;;;6.95;2.25;;;24.10;91.30;;;;;;5034103;28;20036;-63
2022/03/05 08:35:12;;;;;;;8.40;2.35;;;24.10;91.30;;;;;;5043917;28;20045;-61
2022/03/05 08:37:39;;;;;;;7.80;1.80;;;24.10;91.30;;;;;;5037503;28;20060;-61
2022/03/05 08:40:08;;;;;;;7.60;2.30;;;24.10;91.50;;;;;;5042358;28;20034;-62
2022/03/05 08:42:35;;;;;;;6.15;1.83;;;24.10;91.50;;;;;;5021292;28;20037;-62
2022/03/05 08:45:04;;;;;;;9.20;2.10;;;24.10;91.50;;;;;;5031790;28;20128;-62
2022/03/05 08:47:31;;;;;;;9.07;2.20;;;24.10;91.50;;;;;;5050799;28;20025;-64
2022/03/05 08:49:58;;;;;;;11.70;2.58;;;24.10;91.70;;;;;;5033574;28;20495;-63
2022/03/05 08:52:25;;;;;;;14.00;2.67;;;24.10;91.70;;;;;;5044530;28;20099;-64
2022/03/05 08:54:53;;;;;;;7.50;2.17;;;24.10;91.80;;;;;;5050970;28;20087;-64
2022/03/05 08:57:20;;;;;;;7.55;2.05;;;24.10;91.90;;;;;;5051083;28;20112;-65
2022/03/05 08:59:47;;;;;;;9.13;2.83;;;24.10;92.10;;;;;;5050605;28;20063;-63
2022/03/05 09:02:14;;;;;;;11.65;2.63;;;24.10;92.00;;;;;;5050969;28;20072;-64
2022/03/05 09:04:41;;;;;;;10.63;2.28;;;24.10;92.00;;;;;;5051173;28;20033;-63
2022/03/05 09:07:08;;;;;;;10.02;2.47;;;24.10;92.00;;;;;;5050723;28;20091;-63
2022/03/05 09:09:35;;;;;;;9.73;2.30;;;24.00;92.10;;;;;;5032239;28;20037;-62
2022/03/05 09:12:03;;;;;;;7.47;2.40;;;24.10;92.20;;;;;;5031159;28;20037;-63
2022/03/05 09:14:30;;;;;;;9.85;2.38;;;24.10;92.20;;;;;;5031621;28;20468;-64
2022/03/05 09:16:58;;;;;;;11.00;2.38;;;24.00;92.20;;;;;;5045806;28;20087;-63
2022/03/05 09:19:25;;;;;;;9.05;2.42;;;24.00;92.20;;;;;;5051163;28;20045;-61
2022/03/05 09:21:52;;;;;;;12.32;2.60;;;24.00;92.20;;;;;;5050045;28;20040;-62
2022/03/05 09:24:20;;;;;;;10.05;2.55;;;24.10;92.20;;;;;;5050983;28;20053;-63
2022/03/05 09:26:47;;;;;;;12.95;3.08;;;24.10;92.30;;;;;;5030658;28;20478;-64
2022/03/05 09:29:14;;;;;;;7.65;2.15;;;24.10;92.40;;;;;;5050057;28;20195;-63
2022/03/05 09:31:42;;;;;;;7.38;2.40;;;24.00;92.40;;;;;;5050551;28;20147;-65
2022/03/05 09:34:09;;;;;;;7.55;2.00;;;24.10;92.30;;;;;;5032202;28;20115;-65
2022/03/05 09:36:36;;;;;;;9.80;2.10;;;24.10;92.50;;;;;;5031975;28;20033;-65
2022/03/05 09:39:04;;;;;;;12.07;2.72;;;24.10;92.40;;;;;;5050420;28;20052;-65
2022/03/05 10:28:21;;;;;;;12.85;3.45;;;24.00;93.30;;;;;;5028198;28;20064;-63
2022/03/05 10:31:11;;;;;;;10.93;2.75;;;24.00;93.40;;;;;;5013677;28;20487;-64
2022/03/05 10:33:48;;;;;;;12.32;3.28;;;24.00;93.30;;;;;;5022919;28;20037;-64
2022/03/05 10:36:22;;;;;;;11.20;2.67;;;24.00;93.20;;;;;;5008972;28;20519;-65
2022/03/05 10:38:59;;;;;;;14.77;3.28;;;24.00;93.20;;;;;;5010605;28;20068;-63
2022/03/05 10:41:35;;;;;;;11.18;3.17;;;24.00;93.30;;;;;;5020506;28;20091;-63
2022/03/05 10:44:15;;;;;;;12.73;3.20;;;24.00;93.30;;;;;;5030018;28;20092;-63
2022/03/05 10:46:44;;;;;;;11.60;3.38;;;24.00;93.40;;;;;;5012880;28;20492;-63
2022/03/05 10:49:20;;;;;;;10.60;2.90;;;24.00;93.30;;;;;;5012535;28;20072;-63
2022/03/05 10:51:48;;;;;;;16.52;3.30;;;24.00;93.30;;;;;;5003053;28;20524;-63
2022/03/05 10:54:40;;;;;;;10.27;2.88;;;24.00;93.30;;;;;;5011671;28;20060;-63
2022/03/05 10:57:09;;;;;;;13.25;2.90;;;24.00;93.50;;;;;;5010048;28;20518;-63
2022/03/05 10:59:38;;;;;;;11.90;2.83;;;24.00;93.60;;;;;;5010250;28;20101;-63
2022/03/05 11:02:06;;;;;;;15.43;3.22;;;24.00;93.60;;;;;;5011272;28;20080;-65
2022/03/05 11:04:37;;;;;;;12.18;2.70;;;24.00;93.60;;;;;;5009972;28;20503;-62
2022/03/05 11:07:05;;;;;;;12.75;3.88;;;24.00;93.70;;;;;;5015588;28;20041;-63
2022/03/05 11:09:32;;;;;;;11.23;3.28;;;24.00;93.50;;;;;;4999940;28;20026;-63
2022/03/05 11:12:00;;;;;;;9.20;2.40;;;24.00;93.70;;;;;;4995749;28;20030;-62
2022/03/05 11:14:28;;;;;;;9.70;3.00;;;24.00;93.80;;;;;;5026133;28;20033;-63
2022/03/05 11:16:56;;;;;;;12.60;2.97;;;24.00;93.80;;;;;;5031999;28;20052;-63
2022/03/05 11:19:24;;;;;;;11.75;2.53;;;24.00;93.90;;;;;;5033238;28;20022;-63
2022/03/05 11:21:51;;;;;;;11.45;2.92;;;23.90;93.70;;;;;;5015721;28;20041;-62
2022/03/05 11:24:20;;;;;;;13.63;2.92;;;23.90;93.70;;;;;;5032925;28;20049;-63
2022/03/05 11:26:54;;;;;;;16.65;3.33;;;23.90;93.60;;;;;;5043079;28;20084;-65
2022/03/05 11:29:25;;;;;;;12.57;2.97;;;24.00;93.60;;;;;;5034841;28;20041;-64
2022/03/05 11:31:53;;;;;;;11.98;2.95;;;24.00;93.80;;;;;;5034084;28;20332;-64
2022/03/05 11:34:23;;;;;;;11.73;2.95;;;24.00;93.70;;;;;;5009535;28;20044;-65
2022/03/05 11:36:51;;;;;;;15.38;4.07;;;23.90;93.80;;;;;;5052893;28;20029;-64
2022/03/05 11:39:36;;;;;;;17.38;3.63;;;23.90;93.80;;;;;;5052793;28;20040;-65
2022/03/05 11:42:05;;;;;;;11.98;2.67;;;23.90;93.80;;;;;;5048122;28;20503;-65
2022/03/05 11:44:39;;;;;;;19.00;2.83;;;24.00;93.80;;;;;;5026805;28;20037;-65
2022/03/05 11:47:22;;;;;;;10.00;2.53;;;24.00;93.90;;;;;;5052845;28;20086;-65
2022/03/05 11:50:01;;;;;;;14.63;2.58;;;24.00;94.00;;;;;;5063498;22;20057;-67
2022/03/05 11:52:40;;;;;;;19.90;3.83;;;23.90;93.90;;;;;;5033233;28;20038;-67
2022/03/05 11:55:16;;;;;;;7.65;2.03;;;23.90;94.00;;;;;;5049570;28;20357;-68
2022/03/05 11:57:44;;;;;;;4.85;1.17;;;23.70;92.00;;;;;;5015153;28;20125;-68
2022/03/05 12:00:12;;;;;;;3.45;1.10;;;23.60;89.80;;;;;;5032652;28;20437;-68
2022/03/05 12:02:44;;;;;;;2.80;0.85;;;23.40;88.80;;;;;;5014728;28;20034;-68
2022/03/05 12:05:30;;;;;;;3.95;1.00;;;23.40;88.20;;;;;;5014018;28;20092;-67
2022/03/05 12:07:58;;;;;;;1.23;0.80;;;23.30;88.00;;;;;;5032231;28;20057;-64
2022/03/05 12:10:25;;;;;;;2.25;0.73;;;23.30;87.50;;;;;;5014665;28;20033;-64
2022/03/05 12:12:57;;;;;;;2.67;0.90;;;23.20;87.40;;;;;;5032533;28;20422;-65
2022/03/05 12:15:33;;;;;;;4.45;0.82;;;23.20;87.30;;;;;;4994237;28;20045;-65
2022/03/05 12:18:01;;;;;;;4.63;1.00;;;23.20;87.70;;;;;;5015077;28;20037;-64
2022/03/05 12:20:33;;;;;;;3.40;1.00;;;23.10;87.90;;;;;;5033190;28;20037;-64
2022/03/05 12:23:04;;;;;;;2.97;0.80;;;23.00;87.90;;;;;;5015548;28;20041;-65
2022/03/05 12:25:32;;;;;;;2.25;1.10;;;23.00;88.40;;;;;;4997882;28;20408;-64
2022/03/05 12:28:00;;;;;;;2.83;1.02;;;22.90;88.40;;;;;;5032288;28;20053;-64
2022/03/05 12:30:32;;;;;;;13.32;3.10;;;22.80;89.50;;;;;;5031119;28;20412;-63
2022/03/05 12:33:06;;;;;;;12.75;2.72;;;22.70;91.40;;;;;;5014992;28;20084;-62
2022/03/05 12:35:34;;;;;;;5.10;1.48;;;22.40;92.60;;;;;;5014181;28;20401;-62
2022/03/05 12:38:01;;;;;;;2.78;1.30;;;22.20;93.00;;;;;;5031786;28;20029;-63
2022/03/05 12:40:30;;;;;;;8.25;1.30;;;22.00;93.80;;;;;;5020176;28;20042;-62
2022/03/05 12:42:58;;;;;;;8.65;1.90;;;21.90;94.20;;;;;;5029404;28;20498;-62
2022/03/05 12:45:40;;;;;;;8.13;1.55;;;21.80;94.60;;;;;;5014059;28;20041;-62
2022/03/05 12:48:18;;;;;;;6.20;1.40;;;21.80;94.80;;;;;;5031724;28;20044;-62
2022/03/05 12:50:52;;;;;;;7.88;1.80;;;21.70;94.90;;;;;;5013501;28;20041;-62
2022/03/05 12:53:23;;;;;;;3.20;1.50;;;21.60;95.10;;;;;;5013837;28;20029;-62
2022/03/05 12:56:00;;;;;;;2.78;1.23;;;21.60;95.20;;;;;;4994527;28;20041;-62
2022/03/05 12:58:28;;;;;;;4.03;1.27;;;21.50;95.50;;;;;;5011637;28;20040;-62
2022/03/05 13:00:59;;;;;;;8.82;1.65;;;21.50;95.40;;;;;;5013792;28;20032;-62
2022/03/05 13:03:28;;;;;;;4.85;1.30;;;21.50;95.40;;;;;;4997009;28;20116;-62
2022/03/05 13:05:56;;;;;;;3.65;1.10;;;21.40;95.50;;;;;;5018992;28;20050;-63
2022/03/05 13:08:25;;;;;;;5.35;2.05;;;21.40;95.60;;;;;;5011697;28;20108;-62
2022/03/05 13:11:05;;;;;;;4.25;1.38;;;21.40;95.70;;;;;;4994221;28;20450;-62
2022/03/05 13:13:34;;;;;;;5.85;1.40;;;21.40;95.80;;;;;;5013216;28;20488;-62
2022/03/05 13:16:02;;;;;;;4.03;1.77;;;21.40;95.70;;;;;;5031281;28;20041;-62
2022/03/05 13:18:29;;;;;;;6.18;2.75;;;21.40;95.90;;;;;;5031005;28;20038;-62
2022/03/05 13:21:00;;;;;;;4.18;1.70;;;21.40;95.80;;;;;;5014343;28;20037;-62
2022/03/05 13:23:28;;;;;;;2.97;1.60;;;21.40;95.70;;;;;;5013607;28;20033;-62
2022/03/05 13:25:55;;;;;;;3.35;1.40;;;21.40;95.90;;;;;;4993955;28;20063;-62
2022/03/05 13:28:25;;;;;;;5.15;1.52;;;21.40;95.90;;;;;;5002406;28;20375;-62
2022/03/05 13:30:56;;;;;;;8.43;1.83;;;21.50;96.20;;;;;;5030876;28;20048;-62
2022/03/05 13:33:49;;;;;;;2.60;1.33;;;21.50;96.00;;;;;;5031248;28;20490;-62
2022/03/05 13:36:30;;;;;;;5.07;1.65;;;21.50;95.80;;;;;;5011303;28;20030;-62